Time;durP1;ratioP1;P1;durP2;ratioP2;P2;SDS_P1;SDS_P2;PMS_P1;PMS_P2;Temp;Humidity;BMP_temperature;BMP_pressure;BME280_temperature;BME280_humidity;BME280_pressure;Samples;Min_cycle;Max_cycle;Signal;HPM_P1;HPM_P2
2024/04/16 04:07:37;;;;;;;0.40;0.40;;;5.50;99.90;;;;;;5381574;21;20751;-64
2024/04/16 04:10:04;;;;;;;0.50;0.50;;;5.50;99.90;;;;;;5277569;27;20237;-65
2024/04/16 04:12:29;;;;;;;0.30;0.30;;;5.60;99.90;;;;;;5276162;27;20265;-61
2024/04/16 04:14:55;;;;;;;0.40;0.40;;;5.60;99.90;;;;;;5276254;27;20237;-65
2024/04/16 04:17:20;;;;;;;0.40;0.40;;;5.70;99.90;;;;;;5277046;27;20268;-64
2024/04/16 04:19:46;;;;;;;0.40;0.40;;;5.70;99.90;;;;;;5275381;27;20317;-65
2024/04/16 04:22:11;;;;;;;0.40;0.40;;;5.70;99.90;;;;;;5277127;27;20221;-64
2024/04/16 04:24:37;;;;;;;0.30;0.30;;;5.80;99.90;;;;;;5278286;27;20269;-66
2024/04/16 04:27:03;;;;;;;0.40;0.40;;;5.80;99.90;;;;;;5276279;27;20327;-64
2024/04/16 04:29:30;;;;;;;0.40;0.40;;;5.80;99.90;;;;;;5277130;27;20269;-65
2024/04/16 04:31:55;;;;;;;0.35;0.35;;;5.80;99.90;;;;;;5276437;27;20221;-64
2024/04/16 04:34:21;;;;;;;0.47;0.47;;;5.80;99.90;;;;;;5276814;27;20298;-65
2024/04/16 04:36:46;;;;;;;0.40;0.40;;;5.80;99.90;;;;;;5274982;27;20292;-64
2024/04/16 04:39:12;;;;;;;0.40;0.40;;;5.70;99.90;;;;;;5277062;27;20268;-66
2024/04/16 04:41:37;;;;;;;0.43;0.43;;;5.70;99.90;;;;;;5277519;27;20537;-64
2024/04/16 04:44:03;;;;;;;0.40;0.40;;;5.70;99.90;;;;;;5280230;27;20240;-64
2024/04/16 04:46:30;;;;;;;0.43;0.43;;;5.60;99.90;;;;;;5279209;27;20241;-65
2024/04/16 04:48:55;;;;;;;0.40;0.40;;;5.50;99.90;;;;;;5279946;27;20562;-64
2024/04/16 04:51:21;;;;;;;0.47;0.47;;;5.50;99.90;;;;;;5279657;27;20267;-65
2024/04/16 04:53:46;;;;;;;0.40;0.40;;;5.50;99.90;;;;;;5280274;27;20720;-64
2024/04/16 04:56:12;;;;;;;0.40;0.40;;;5.50;99.90;;;;;;5279849;27;20595;-64
2024/04/16 04:58:37;;;;;;;0.40;0.40;;;5.50;99.90;;;;;;5278332;27;20226;-64
2024/04/16 05:01:03;;;;;;;0.40;0.40;;;5.50;99.90;;;;;;5279305;27;20674;-63
2024/04/16 05:03:29;;;;;;;0.30;0.30;;;5.50;99.90;;;;;;5279706;27;20235;-62
2024/04/16 05:05:54;;;;;;;0.40;0.40;;;5.40;99.90;;;;;;5279281;27;20529;-63
2024/04/16 05:08:20;;;;;;;0.40;0.40;;;5.50;99.90;;;;;;5279428;27;20276;-65
2024/04/16 05:10:50;;;;;;;0.40;0.40;;;5.50;99.90;;;;;;5279611;27;20259;-62
2024/04/16 05:13:16;;;;;;;0.40;0.40;;;5.50;99.90;;;;;;5279542;27;20355;-65
2024/04/16 05:15:44;;;;;;;0.40;0.40;;;5.60;99.90;;;;;;5279064;27;20237;-63
2024/04/16 05:18:10;;;;;;;0.40;0.40;;;5.70;99.90;;;;;;5279480;27;20369;-64
2024/04/16 05:20:35;;;;;;;0.40;0.40;;;5.70;99.90;;;;;;5278493;27;20230;-64
2024/04/16 05:23:01;;;;;;;0.30;0.30;;;5.80;99.90;;;;;;5278984;27;20242;-67
2024/04/16 05:25:26;;;;;;;0.50;0.50;;;5.90;99.90;;;;;;5279041;27;20237;-63
2024/04/16 05:27:52;;;;;;;0.30;0.30;;;6.00;99.90;;;;;;5277345;27;20266;-64
2024/04/16 05:30:18;;;;;;;0.40;0.40;;;6.10;99.90;;;;;;5278768;27;20242;-64
2024/04/16 05:32:43;;;;;;;0.50;0.50;;;6.10;99.90;;;;;;5279634;27;20257;-64
2024/04/16 05:35:09;;;;;;;0.40;0.40;;;6.20;99.90;;;;;;5278480;27;20512;-65
2024/04/16 05:37:35;;;;;;;0.30;0.30;;;6.30;99.90;;;;;;5279314;27;20238;-64
2024/04/16 05:40:00;;;;;;;0.33;0.33;;;6.40;99.90;;;;;;5279086;27;20585;-65
2024/04/16 05:42:26;;;;;;;0.53;0.53;;;6.50;99.90;;;;;;5279498;27;20602;-64
2024/04/16 05:44:51;;;;;;;0.40;0.40;;;6.50;99.90;;;;;;5278097;27;20242;-62
2024/04/16 05:47:17;;;;;;;0.30;0.30;;;6.60;99.90;;;;;;5279332;27;20581;-65
2024/04/16 05:49:42;;;;;;;0.40;0.40;;;6.70;99.90;;;;;;5279511;27;20234;-65
2024/04/16 05:52:08;;;;;;;0.40;0.40;;;6.80;99.90;;;;;;5278789;27;20276;-63
2024/04/16 05:54:34;;;;;;;0.30;0.30;;;6.90;99.90;;;;;;5278898;27;20223;-64
2024/04/16 05:57:00;;;;;;;0.30;0.30;;;6.90;99.90;;;;;;5278639;27;20847;-63
2024/04/16 05:59:26;;;;;;;0.30;0.30;;;7.00;99.90;;;;;;5276006;27;20490;-65
2024/04/16 06:01:51;;;;;;;0.40;0.40;;;7.10;99.90;;;;;;5273678;27;20799;-65
2024/04/16 06:04:17;;;;;;;0.40;0.40;;;7.20;99.90;;;;;;5276033;27;20230;-64
2024/04/16 06:06:42;;;;;;;0.30;0.30;;;7.20;99.90;;;;;;5274809;27;20289;-65
2024/04/16 06:09:08;;;;;;;0.30;0.30;;;7.30;99.90;;;;;;5275762;27;20226;-64
2024/04/16 06:11:34;;;;;;;0.40;0.40;;;7.40;99.90;;;;;;5276290;27;20265;-66
2024/04/16 06:13:59;;;;;;;0.30;0.30;;;7.50;99.90;;;;;;5278319;27;20282;-65
2024/04/16 06:16:26;;;;;;;0.40;0.40;;;7.50;99.90;;;;;;5278406;27;20227;-65
2024/04/16 06:18:52;;;;;;;0.40;0.40;;;7.50;99.90;;;;;;5276975;27;20264;-64
2024/04/16 06:21:17;;;;;;;0.40;0.40;;;7.50;99.90;;;;;;5277249;27;20231;-65
2024/04/16 06:23:43;;;;;;;0.40;0.40;;;7.60;99.90;;;;;;5277759;27;20246;-65
2024/04/16 06:26:09;;;;;;;0.30;0.30;;;7.70;99.90;;;;;;5277713;27;20838;-65
2024/04/16 06:28:35;;;;;;;0.40;0.40;;;7.70;99.90;;;;;;5278718;27;20218;-65
2024/04/16 06:31:01;;;;;;;0.30;0.30;;;7.90;99.90;;;;;;5278090;27;20383;-64
2024/04/16 06:33:28;;;;;;;0.30;0.30;;;8.00;99.90;;;;;;5278719;27;20256;-65
2024/04/16 06:35:54;;;;;;;0.30;0.30;;;8.10;99.90;;;;;;5278070;27;20462;-64
2024/04/16 06:38:24;;;;;;;0.30;0.30;;;8.30;99.90;;;;;;5277939;27;20273;-63
2024/04/16 06:40:53;;;;;;;0.30;0.30;;;8.30;99.90;;;;;;5278693;27;20219;-65
2024/04/16 06:43:19;;;;;;;0.30;0.30;;;8.50;99.90;;;;;;5278261;27;20310;-65
2024/04/16 06:45:44;;;;;;;0.30;0.30;;;8.60;99.90;;;;;;5278048;27;20246;-65
2024/04/16 06:48:10;;;;;;;0.40;0.40;;;8.70;99.90;;;;;;5278788;27;20215;-63
2024/04/16 06:50:35;;;;;;;0.30;0.30;;;8.80;99.90;;;;;;5278577;27;20281;-65
2024/04/16 06:53:02;;;;;;;0.30;0.30;;;8.90;99.90;;;;;;5278549;27;20730;-66
2024/04/16 06:55:30;;;;;;;0.30;0.30;;;9.00;99.90;;;;;;5277876;27;20298;-64
2024/04/16 06:57:57;;;;;;;0.30;0.30;;;9.10;99.90;;;;;;5278635;27;20762;-64
2024/04/16 07:00:23;;;;;;;0.30;0.30;;;9.20;99.90;;;;;;5278262;27;20239;-64
2024/04/16 07:02:48;;;;;;;0.40;0.40;;;9.30;99.90;;;;;;5278486;27;20322;-63
2024/04/16 07:05:14;;;;;;;0.30;0.30;;;9.40;99.90;;;;;;5276876;27;20287;-64
2024/04/16 07:07:40;;;;;;;0.30;0.30;;;9.60;99.90;;;;;;5278230;27;20268;-65
2024/04/16 07:10:06;;;;;;;0.37;0.37;;;9.70;99.90;;;;;;5278107;27;20279;-65
2024/04/16 07:12:31;;;;;;;0.30;0.30;;;9.90;99.90;;;;;;5278192;27;20221;-64
2024/04/16 07:14:57;;;;;;;0.30;0.30;;;10.00;99.90;;;;;;5277894;27;20585;-64
2024/04/16 07:17:22;;;;;;;0.30;0.30;;;10.30;99.90;;;;;;5278335;27;20322;-65
2024/04/16 07:19:51;;;;;;;0.30;0.30;;;10.50;99.90;;;;;;5278130;27;20231;-66
2024/04/16 07:22:16;;;;;;;0.30;0.30;;;10.70;99.90;;;;;;5278137;27;20222;-65
2024/04/16 07:24:42;;;;;;;0.30;0.30;;;10.90;99.90;;;;;;5277841;27;20526;-64
2024/04/16 07:27:08;;;;;;;0.30;0.30;;;11.10;99.90;;;;;;5278028;27;20245;-65
2024/04/16 07:29:34;;;;;;;0.30;0.30;;;11.30;98.90;;;;;;5278033;27;20573;-65
2024/04/16 07:31:59;;;;;;;0.30;0.30;;;11.40;98.00;;;;;;5277521;27;20593;-65
2024/04/16 07:34:25;;;;;;;0.30;0.30;;;11.30;97.10;;;;;;5277941;27;20219;-64
2024/04/16 07:36:50;;;;;;;0.30;0.30;;;11.30;97.00;;;;;;5277924;27;20272;-64
2024/04/16 07:39:16;;;;;;;0.30;0.30;;;11.50;96.70;;;;;;5278253;27;20308;-64
2024/04/16 07:41:42;;;;;;;0.40;0.40;;;11.60;95.50;;;;;;5277963;27;20247;-65
2024/04/16 07:44:07;;;;;;;0.30;0.30;;;11.70;93.60;;;;;;5278127;27;20254;-66
2024/04/16 07:46:33;;;;;;;0.30;0.30;;;11.80;92.50;;;;;;5277020;27;20234;-65
2024/04/16 07:48:59;;;;;;;0.30;0.30;;;11.80;92.40;;;;;;5277573;27;20235;-65
2024/04/16 07:51:25;;;;;;;0.30;0.30;;;11.70;91.70;;;;;;5277625;27;20530;-66
2024/04/16 07:53:50;;;;;;;0.30;0.30;;;11.70;92.00;;;;;;5277849;27;20218;-65
2024/04/16 07:56:16;;;;;;;0.30;0.30;;;11.90;92.10;;;;;;5277416;27;20235;-65
2024/04/16 07:58:42;;;;;;;0.30;0.30;;;12.50;90.60;;;;;;5277853;27;20230;-65
2024/04/16 08:01:07;;;;;;;0.30;0.30;;;13.30;89.80;;;;;;5277611;27;20231;-65
2024/04/16 08:03:33;;;;;;;0.30;0.30;;;13.90;87.90;;;;;;5277665;27;20278;-66
2024/04/16 08:05:58;;;;;;;0.30;0.30;;;14.20;84.30;;;;;;5277173;27;20553;-65
2024/04/16 08:08:24;;;;;;;0.30;0.30;;;14.50;85.30;;;;;;5277498;27;20261;-67
2024/04/16 08:10:50;;;;;;;0.40;0.37;;;14.80;82.60;;;;;;5276880;27;20539;-64
2024/04/16 08:13:15;;;;;;;0.30;0.30;;;15.20;81.40;;;;;;5277645;27;20603;-65
2024/04/16 08:15:47;;;;;;;0.30;0.30;;;15.60;78.30;;;;;;5277092;27;20231;-65
2024/04/16 08:18:13;;;;;;;0.30;0.30;;;15.40;78.20;;;;;;5281128;27;20218;-65
2024/04/16 08:20:39;;;;;;;0.40;0.40;;;15.40;77.70;;;;;;5280569;27;20543;-66
2024/04/16 08:23:04;;;;;;;0.30;0.20;;;15.60;78.60;;;;;;5280767;27;20241;-66
2024/04/16 08:25:30;;;;;;;0.30;0.30;;;16.10;77.20;;;;;;5280092;27;20457;-65
2024/04/16 08:27:55;;;;;;;0.40;0.40;;;16.60;77.90;;;;;;5279923;27;20712;-64
2024/04/16 08:30:21;;;;;;;0.30;0.30;;;17.00;76.90;;;;;;5279128;27;20261;-64
2024/04/16 08:32:46;;;;;;;0.30;0.30;;;17.30;75.00;;;;;;5280393;27;20281;-65
2024/04/16 08:35:24;;;;;;;0.30;0.20;;;17.30;74.90;;;;;;5280311;27;20215;-64
2024/04/16 08:37:49;;;;;;;0.30;0.30;;;17.40;73.00;;;;;;5280874;27;20443;-63
2024/04/16 08:40:15;;;;;;;0.30;0.30;;;17.10;72.80;;;;;;5280665;27;20757;-65
2024/04/16 08:42:41;;;;;;;0.30;0.30;;;17.30;73.00;;;;;;5280481;27;20234;-64
2024/04/16 08:45:10;;;;;;;0.30;0.30;;;17.60;73.70;;;;;;5280183;27;20770;-65
2024/04/16 08:47:37;;;;;;;0.30;0.30;;;17.30;73.80;;;;;;5279720;27;20508;-65
2024/04/16 08:50:03;;;;;;;0.30;0.30;;;16.80;72.10;;;;;;5280390;27;20756;-64
2024/04/16 08:52:31;;;;;;;0.30;0.30;;;16.10;72.70;;;;;;5280084;27;20442;-64
2024/04/16 08:54:57;;;;;;;0.30;0.30;;;15.60;72.40;;;;;;5280068;27;20446;-65
2024/04/16 08:57:24;;;;;;;0.30;0.30;;;14.90;75.40;;;;;;5280195;27;20458;-65
2024/04/16 08:59:49;;;;;;;0.30;0.30;;;14.30;74.30;;;;;;5280331;27;20808;-64
2024/04/16 09:02:16;;;;;;;0.30;0.30;;;13.80;75.90;;;;;;5278325;27;20457;-64
2024/04/16 09:04:43;;;;;;;0.30;0.30;;;13.50;76.90;;;;;;5279816;27;20234;-66
2024/04/16 09:07:09;;;;;;;0.30;0.30;;;13.30;78.00;;;;;;5278282;27;20441;-65
2024/04/16 09:09:35;;;;;;;0.30;0.30;;;13.10;80.50;;;;;;5280172;27;20483;-64
2024/04/16 09:12:03;;;;;;;0.30;0.30;;;13.00;79.50;;;;;;5279915;27;20753;-65
2024/04/16 09:14:29;;;;;;;0.30;0.30;;;13.00;79.90;;;;;;5280002;27;20237;-65
2024/04/16 09:16:55;;;;;;;0.30;0.30;;;13.10;82.00;;;;;;5280149;27;20537;-65
2024/04/16 09:19:23;;;;;;;0.30;0.30;;;13.40;83.20;;;;;;5279621;27;20464;-65
2024/04/16 09:21:48;;;;;;;0.30;0.30;;;13.60;80.70;;;;;;5280094;27;20222;-65
2024/04/16 09:24:20;;;;;;;0.30;0.30;;;13.60;79.10;;;;;;5279615;27;20571;-65
2024/04/16 09:26:45;;;;;;;0.30;0.30;;;13.50;78.80;;;;;;5279742;27;20263;-64
2024/04/16 09:29:11;;;;;;;0.30;0.30;;;13.50;81.70;;;;;;5278835;27;20535;-67
2024/04/16 09:31:36;;;;;;;0.30;0.30;;;14.00;79.70;;;;;;5279826;27;20234;-65
2024/04/16 09:34:07;;;;;;;0.30;0.20;;;14.00;77.50;;;;;;5279272;27;20560;-65
2024/04/16 09:36:33;;;;;;;0.30;0.30;;;13.80;78.70;;;;;;5279372;27;20571;-66
2024/04/16 09:38:59;;;;;;;0.30;0.30;;;14.00;79.40;;;;;;5279753;27;20429;-66
2024/04/16 09:41:27;;;;;;;1.27;1.10;;;13.90;79.50;;;;;;5279904;27;20510;-67
2024/04/16 09:43:54;;;;;;;0.30;0.30;;;14.10;79.20;;;;;;5279648;27;20542;-64
2024/04/16 09:46:21;;;;;;;0.30;0.30;;;14.60;78.90;;;;;;5279098;27;21033;-65
2024/04/16 09:48:47;;;;;;;0.30;0.30;;;14.80;80.80;;;;;;5279670;27;20479;-68
2024/04/16 09:51:14;;;;;;;0.30;0.30;;;15.20;78.40;;;;;;5279924;27;20479;-67
2024/04/16 09:53:43;;;;;;;0.30;0.20;;;15.40;77.70;;;;;;5279725;27;20422;-66
2024/04/16 09:56:09;;;;;;;0.30;0.30;;;15.40;77.80;;;;;;5278658;27;20531;-65
2024/04/16 09:58:36;;;;;;;0.30;0.30;;;15.40;76.30;;;;;;5279509;27;20503;-66
2024/04/16 10:01:03;;;;;;;0.40;0.40;;;15.20;76.20;;;;;;5279397;27;20438;-65
2024/04/16 10:03:32;;;;;;;0.30;0.20;;;14.80;75.60;;;;;;5279329;27;20956;-66
2024/04/16 10:05:58;;;;;;;0.30;0.30;;;14.30;77.50;;;;;;5278825;27;20493;-65
2024/04/16 10:08:25;;;;;;;0.30;0.30;;;13.80;79.10;;;;;;5277504;27;20441;-65
2024/04/16 10:10:54;;;;;;;0.30;0.30;;;13.30;80.60;;;;;;5278701;27;20233;-66
2024/04/16 10:13:19;;;;;;;0.30;0.30;;;13.00;83.40;;;;;;5279008;27;20466;-65
2024/04/16 10:15:45;;;;;;;0.30;0.30;;;12.70;85.00;;;;;;5278915;27;20526;-65
2024/04/16 10:18:11;;;;;;;0.30;0.30;;;12.60;84.30;;;;;;5279210;27;20235;-64
2024/04/16 10:20:51;;;;;;;0.30;0.30;;;12.50;84.70;;;;;;5279471;27;20254;-66
2024/04/16 10:23:18;;;;;;;0.50;0.50;;;12.50;85.10;;;;;;5278489;27;20438;-66
2024/04/16 10:25:51;;;;;;;0.30;0.30;;;12.40;87.10;;;;;;5278695;27;20653;-66
2024/04/16 10:28:28;;;;;;;0.30;0.30;;;12.40;86.40;;;;;;5278962;27;20519;-65
2024/04/16 10:31:02;;;;;;;0.30;0.30;;;12.30;85.50;;;;;;5279254;27;20507;-66
2024/04/16 10:33:32;;;;;;;0.30;0.30;;;12.00;87.30;;;;;;5278717;27;20431;-67
2024/04/16 10:35:57;;;;;;;0.30;0.30;;;11.90;86.90;;;;;;5278690;27;20560;-63
2024/04/16 10:38:24;;;;;;;0.30;0.30;;;11.80;88.70;;;;;;5278760;27;20465;-66
2024/04/16 10:40:54;;;;;;;0.30;0.30;;;11.70;89.80;;;;;;5277543;27;20231;-66
2024/04/16 10:43:24;;;;;;;0.30;0.30;;;11.70;89.40;;;;;;5278714;27;20521;-65
2024/04/16 10:45:51;;;;;;;0.30;0.30;;;11.60;90.60;;;;;;5278210;27;20462;-65
2024/04/16 10:48:22;;;;;;;0.30;0.30;;;11.60;90.20;;;;;;5278967;27;20432;-64
2024/04/16 10:50:49;;;;;;;0.30;0.30;;;11.50;90.60;;;;;;5278335;27;20518;-65
2024/04/16 10:53:18;;;;;;;0.30;0.30;;;11.50;91.40;;;;;;5278918;27;20448;-64
2024/04/16 10:55:47;;;;;;;0.30;0.30;;;11.70;91.30;;;;;;5278152;27;20430;-65
2024/04/16 10:58:14;;;;;;;0.30;0.30;;;11.80;90.90;;;;;;5278649;27;20460;-64
2024/04/16 11:00:43;;;;;;;0.30;0.30;;;11.90;91.10;;;;;;5278546;27;20959;-66
2024/04/16 11:03:12;;;;;;;0.40;0.40;;;12.00;91.10;;;;;;5278509;27;20462;-64
2024/04/16 11:05:39;;;;;;;0.30;0.30;;;12.10;90.70;;;;;;5277762;27;20555;-64
2024/04/16 11:08:07;;;;;;;0.30;0.30;;;12.20;91.40;;;;;;5278402;27;20514;-67
2024/04/16 11:10:36;;;;;;;0.30;0.30;;;12.40;90.50;;;;;;5278283;27;20422;-66
2024/04/16 11:13:02;;;;;;;0.40;0.40;;;12.60;90.60;;;;;;5278553;27;20752;-66
2024/04/16 11:15:35;;;;;;;0.30;0.30;;;12.80;90.20;;;;;;5277877;27;20517;-65
2024/04/16 11:18:04;;;;;;;0.30;0.20;;;12.90;90.00;;;;;;5278212;27;20498;-65
2024/04/16 11:20:30;;;;;;;0.30;0.30;;;13.00;90.00;;;;;;5278071;27;20454;-63
2024/04/16 11:22:57;;;;;;;0.30;0.20;;;13.10;90.20;;;;;;5278124;27;21049;-64
2024/04/16 11:25:23;;;;;;;0.30;0.30;;;12.90;90.00;;;;;;5277960;27;20438;-66
2024/04/16 11:27:49;;;;;;;0.30;0.30;;;12.80;90.70;;;;;;5278009;27;20872;-65
2024/04/16 11:30:14;;;;;;;0.30;0.30;;;12.70;90.80;;;;;;5278144;27;20290;-64
2024/04/16 11:32:41;;;;;;;0.30;0.30;;;12.50;90.00;;;;;;5278002;27;20446;-64
2024/04/16 11:35:11;;;;;;;0.30;0.30;;;12.50;91.40;;;;;;5277554;27;20693;-65
2024/04/16 11:37:37;;;;;;;0.30;0.30;;;12.50;91.60;;;;;;5277985;27;20470;-64
2024/04/16 11:40:06;;;;;;;0.30;0.30;;;12.50;90.70;;;;;;5277996;27;20461;-66
2024/04/16 11:42:32;;;;;;;0.30;0.30;;;12.50;90.80;;;;;;5277924;27;20509;-65
2024/04/16 11:44:59;;;;;;;0.30;0.30;;;12.30;91.00;;;;;;5277560;27;20422;-66
2024/04/16 11:47:25;;;;;;;0.30;0.30;;;12.30;91.70;;;;;;5277479;27;20268;-66
2024/04/16 11:49:51;;;;;;;0.30;0.30;;;12.20;92.00;;;;;;5278095;27;20433;-67
2024/04/16 11:52:17;;;;;;;0.53;0.53;;;12.30;91.60;;;;;;5283741;27;20469;-65
2024/04/16 11:54:43;;;;;;;0.30;0.30;;;12.20;91.70;;;;;;5283164;27;20253;-66
2024/04/16 11:57:09;;;;;;;0.30;0.30;;;12.20;91.20;;;;;;5284806;27;20529;-64
2024/04/16 11:59:34;;;;;;;0.30;0.30;;;12.20;91.70;;;;;;5284983;27;20489;-66
2024/04/16 12:02:01;;;;;;;0.30;0.30;;;12.20;91.80;;;;;;5285457;27;20285;-66
2024/04/16 12:04:27;;;;;;;0.30;0.30;;;12.20;91.80;;;;;;5285615;27;20218;-66
2024/04/16 12:06:52;;;;;;;0.30;0.30;;;12.10;92.20;;;;;;5283767;27;21062;-64
2024/04/16 12:09:18;;;;;;;0.30;0.30;;;12.10;92.70;;;;;;5285136;27;20558;-63
2024/04/16 12:11:44;;;;;;;0.40;0.40;;;12.10;93.10;;;;;;5284599;27;20230;-64
2024/04/16 12:14:10;;;;;;;0.30;0.30;;;12.30;93.30;;;;;;5284864;27;20218;-66
2024/04/16 12:16:38;;;;;;;0.30;0.30;;;12.50;93.00;;;;;;5284032;27;21053;-66
2024/04/16 12:19:04;;;;;;;0.30;0.30;;;12.70;92.90;;;;;;5284694;27;20816;-66
2024/04/16 12:21:30;;;;;;;0.30;0.30;;;12.90;92.40;;;;;;5284918;27;20454;-65
2024/04/16 12:23:56;;;;;;;0.30;0.30;;;13.00;91.70;;;;;;5284506;27;20511;-66
2024/04/16 12:26:22;;;;;;;0.30;0.30;;;13.00;91.60;;;;;;5283684;27;20482;-65
2024/04/16 12:28:49;;;;;;;0.30;0.30;;;13.10;91.00;;;;;;5284678;27;20215;-64
2024/04/16 12:31:15;;;;;;;0.30;0.30;;;13.10;90.90;;;;;;5283801;27;20310;-64
2024/04/16 12:33:41;;;;;;;0.33;0.33;;;13.10;90.50;;;;;;5284349;27;20959;-64
2024/04/16 12:36:08;;;;;;;0.30;0.30;;;13.00;90.60;;;;;;5283369;27;20235;-65
2024/04/16 12:38:33;;;;;;;0.30;0.30;;;12.90;91.40;;;;;;5284410;27;20226;-65
2024/04/16 12:40:59;;;;;;;0.30;0.30;;;12.90;91.00;;;;;;5283989;27;20939;-67
2024/04/16 12:43:25;;;;;;;0.30;0.30;;;12.90;90.30;;;;;;5283684;27;20285;-63
2024/04/16 12:45:57;;;;;;;0.30;0.30;;;12.90;89.50;;;;;;5284068;27;20242;-63
2024/04/16 12:48:25;;;;;;;0.30;0.30;;;12.90;89.50;;;;;;5284048;27;20558;-64
2024/04/16 12:50:51;;;;;;;0.30;0.30;;;12.90;89.70;;;;;;5284095;27;20430;-64
2024/04/16 12:53:17;;;;;;;0.30;0.30;;;13.00;90.80;;;;;;5283619;27;20524;-64
2024/04/16 12:55:43;;;;;;;0.30;0.30;;;13.10;90.70;;;;;;5283564;27;20506;-64
2024/04/16 12:58:09;;;;;;;0.40;0.40;;;13.30;90.40;;;;;;5283843;27;20341;-63
2024/04/16 13:00:35;;;;;;;0.30;0.30;;;13.20;90.60;;;;;;5283958;27;20226;-63
2024/04/16 13:03:01;;;;;;;0.30;0.30;;;13.40;88.70;;;;;;5280401;27;20518;-64
2024/04/16 13:05:26;;;;;;;0.30;0.30;;;13.30;90.30;;;;;;5279596;27;20261;-64
2024/04/16 13:07:52;;;;;;;0.30;0.30;;;13.30;89.80;;;;;;5279669;27;20230;-63
2024/04/16 13:10:18;;;;;;;0.30;0.30;;;13.40;89.30;;;;;;5279931;27;20266;-63
2024/04/16 13:12:43;;;;;;;0.30;0.30;;;13.30;90.00;;;;;;5279892;27;20231;-63
2024/04/16 13:15:09;;;;;;;0.30;0.30;;;13.30;89.90;;;;;;5279634;27;20362;-63
2024/04/16 13:17:35;;;;;;;0.30;0.20;;;13.30;88.90;;;;;;5279757;27;20239;-64
2024/04/16 13:20:01;;;;;;;0.30;0.30;;;13.50;90.20;;;;;;5280047;27;20873;-67
2024/04/16 13:22:26;;;;;;;0.30;0.30;;;13.70;90.30;;;;;;5279307;27;20231;-65
2024/04/16 13:24:52;;;;;;;0.30;0.30;;;14.00;89.50;;;;;;5279189;27;20542;-64
2024/04/16 13:27:17;;;;;;;0.30;0.30;;;14.10;88.30;;;;;;5279289;27;20232;-65
2024/04/16 13:29:43;;;;;;;0.30;0.30;;;14.20;89.50;;;;;;5279916;27;20233;-64
2024/04/16 13:32:09;;;;;;;0.37;0.37;;;14.40;86.50;;;;;;5279469;27;20263;-65
2024/04/16 13:34:34;;;;;;;0.30;0.30;;;14.50;85.70;;;;;;5279532;27;20254;-65
2024/04/16 13:37:00;;;;;;;0.30;0.30;;;14.50;85.80;;;;;;5279208;27;20283;-64
2024/04/16 13:39:26;;;;;;;0.30;0.30;;;14.30;87.00;;;;;;5279990;27;20323;-66
2024/04/16 13:41:52;;;;;;;0.30;0.30;;;14.30;86.60;;;;;;5279540;27;20548;-65
2024/04/16 13:44:18;;;;;;;0.40;0.40;;;14.10;87.50;;;;;;5279712;27;20547;-64
2024/04/16 13:46:44;;;;;;;0.30;0.30;;;14.00;88.60;;;;;;5278725;27;20563;-64
2024/04/16 13:49:12;;;;;;;0.30;0.30;;;14.10;89.00;;;;;;5279695;27;20546;-65
2024/04/16 13:51:38;;;;;;;0.30;0.30;;;14.20;88.90;;;;;;5279184;27;20618;-64
2024/04/16 13:54:04;;;;;;;0.30;0.30;;;14.30;85.80;;;;;;5279425;27;20427;-64
2024/04/16 13:56:31;;;;;;;0.40;0.40;;;14.20;87.30;;;;;;5279091;27;20974;-62
2024/04/16 13:58:58;;;;;;;0.30;0.30;;;14.10;88.80;;;;;;5279454;27;20779;-63
2024/04/16 14:01:24;;;;;;;0.30;0.27;;;14.00;87.80;;;;;;5279306;27;20840;-62
2024/04/16 14:03:49;;;;;;;0.30;0.30;;;13.90;89.70;;;;;;5280003;27;20430;-63
2024/04/16 14:06:15;;;;;;;0.30;0.30;;;13.80;89.40;;;;;;5278360;27;20234;-66
2024/04/16 14:08:41;;;;;;;0.30;0.30;;;13.80;88.70;;;;;;5279419;27;20337;-64
2024/04/16 14:11:07;;;;;;;0.30;0.30;;;13.80;88.30;;;;;;5279011;27;20227;-63
2024/04/16 14:13:33;;;;;;;0.30;0.30;;;13.70;89.40;;;;;;5278483;27;20514;-63
2024/04/16 14:15:58;;;;;;;0.30;0.30;;;13.90;89.60;;;;;;5278809;27;20475;-64
2024/04/16 14:18:24;;;;;;;0.30;0.30;;;14.00;87.60;;;;;;5279211;27;20479;-63
2024/04/16 14:20:50;;;;;;;0.30;0.30;;;14.10;89.60;;;;;;5278880;27;20649;-63
2024/04/16 14:23:15;;;;;;;0.30;0.30;;;14.30;89.10;;;;;;5279243;27;20224;-63
2024/04/16 14:25:41;;;;;;;0.30;0.30;;;14.50;87.10;;;;;;5278479;27;20341;-63
2024/04/16 14:28:06;;;;;;;0.30;0.30;;;14.60;87.00;;;;;;5279295;27;20334;-63
2024/04/16 14:30:32;;;;;;;0.30;0.30;;;14.50;86.10;;;;;;5278722;27;20311;-63
2024/04/16 14:32:58;;;;;;;0.30;0.30;;;14.40;87.50;;;;;;5280048;27;20266;-63
2024/04/16 14:35:26;;;;;;;0.30;0.30;;;14.30;87.30;;;;;;5277717;27;20330;-63
2024/04/16 14:37:52;;;;;;;0.30;0.30;;;14.30;87.30;;;;;;5278648;27;20216;-63
2024/04/16 14:40:18;;;;;;;0.30;0.30;;;14.30;87.60;;;;;;5276772;27;20534;-63
2024/04/16 14:42:44;;;;;;;0.30;0.30;;;14.30;87.50;;;;;;5276503;27;20220;-64
2024/04/16 14:45:10;;;;;;;0.30;0.30;;;14.40;87.10;;;;;;5275631;27;20464;-64
2024/04/16 14:47:36;;;;;;;0.30;0.30;;;14.40;87.00;;;;;;5276092;27;20902;-64
2024/04/16 14:50:02;;;;;;;0.30;0.30;;;14.50;86.30;;;;;;5276198;27;20478;-62
2024/04/16 14:52:27;;;;;;;0.30;0.30;;;14.30;85.70;;;;;;5276426;27;20547;-62
2024/04/16 14:54:53;;;;;;;0.30;0.30;;;14.20;87.30;;;;;;5276588;27;20431;-63
2024/04/16 14:57:21;;;;;;;0.30;0.30;;;14.10;87.60;;;;;;5278214;27;20243;-63
2024/04/16 14:59:46;;;;;;;0.30;0.30;;;14.10;88.00;;;;;;5278369;27;20215;-64
2024/04/16 15:02:13;;;;;;;0.40;0.40;;;14.00;86.10;;;;;;5278004;27;20554;-62
2024/04/16 15:04:39;;;;;;;0.40;0.40;;;14.00;86.10;;;;;;5278286;27;20278;-62
2024/04/16 15:07:04;;;;;;;0.30;0.30;;;13.90;87.40;;;;;;5278168;27;20968;-62
2024/04/16 15:09:30;;;;;;;0.30;0.30;;;14.00;88.60;;;;;;5278419;27;20219;-62
2024/04/16 15:11:56;;;;;;;0.30;0.30;;;14.00;88.00;;;;;;5278580;27;20286;-62
2024/04/16 15:14:22;;;;;;;0.30;0.30;;;14.00;86.40;;;;;;5279336;27;20422;-63
2024/04/16 15:16:47;;;;;;;0.30;0.30;;;14.00;87.00;;;;;;5277818;27;20271;-63
2024/04/16 15:19:13;;;;;;;0.50;0.50;;;14.00;86.80;;;;;;5277774;27;20600;-63
2024/04/16 15:21:38;;;;;;;0.30;0.30;;;14.10;87.70;;;;;;5277981;27;20231;-63
2024/04/16 15:24:04;;;;;;;0.30;0.30;;;14.00;88.20;;;;;;5278442;27;20215;-63
2024/04/16 15:26:30;;;;;;;0.30;0.30;;;14.10;89.10;;;;;;5276766;27;20244;-63
2024/04/16 15:28:56;;;;;;;0.30;0.30;;;14.20;89.60;;;;;;5276583;27;20505;-63
2024/04/16 15:31:21;;;;;;;0.30;0.30;;;14.30;87.60;;;;;;5278249;27;20772;-63
2024/04/16 15:33:47;;;;;;;0.30;0.30;;;14.30;87.20;;;;;;5278356;27;20216;-63
2024/04/16 15:36:12;;;;;;;0.30;0.30;;;14.20;87.70;;;;;;5276893;27;20730;-64
2024/04/16 15:38:38;;;;;;;0.30;0.30;;;14.00;87.90;;;;;;5278766;27;20589;-64
2024/04/16 15:41:03;;;;;;;0.30;0.30;;;13.90;88.60;;;;;;5278132;27;20301;-63
2024/04/16 15:43:29;;;;;;;0.30;0.30;;;13.60;89.90;;;;;;5278261;27;20673;-63
2024/04/16 15:45:55;;;;;;;0.40;0.40;;;13.50;91.20;;;;;;5277370;27;20231;-63
2024/04/16 15:48:20;;;;;;;0.30;0.30;;;13.50;91.20;;;;;;5278065;27;20227;-62
2024/04/16 15:50:49;;;;;;;0.30;0.30;;;13.50;91.10;;;;;;5275697;27;20325;-62
2024/04/16 15:53:15;;;;;;;0.30;0.30;;;13.60;91.20;;;;;;5277809;27;20227;-62
2024/04/16 15:55:44;;;;;;;0.30;0.30;;;13.60;91.30;;;;;;5277334;27;20486;-63
2024/04/16 15:58:11;;;;;;;0.30;0.30;;;13.70;91.20;;;;;;5277824;27;20249;-63
2024/04/16 16:00:39;;;;;;;0.40;0.40;;;13.60;91.60;;;;;;5275570;27;20541;-62
2024/04/16 16:03:05;;;;;;;0.30;0.30;;;13.60;91.50;;;;;;5277511;27;20617;-63
2024/04/16 16:05:31;;;;;;;0.30;0.30;;;13.60;91.40;;;;;;5276655;27;20471;-63
2024/04/16 16:07:56;;;;;;;0.30;0.30;;;13.50;91.00;;;;;;5277059;27;20466;-63
2024/04/16 16:10:22;;;;;;;0.40;0.40;;;13.50;90.20;;;;;;5277434;27;20297;-62
2024/04/16 16:12:48;;;;;;;0.40;0.40;;;13.50;90.00;;;;;;5277649;27;20717;-62
2024/04/16 16:15:14;;;;;;;0.30;0.30;;;13.30;89.40;;;;;;5276626;27;20322;-62
2024/04/16 16:17:39;;;;;;;0.30;0.30;;;13.10;90.20;;;;;;5277467;27;20733;-63
2024/04/16 16:20:07;;;;;;;0.30;0.30;;;13.00;89.70;;;;;;5275937;27;20455;-62
2024/04/16 16:22:32;;;;;;;0.40;0.40;;;12.80;90.20;;;;;;5276988;27;20652;-62
2024/04/16 16:24:58;;;;;;;0.30;0.30;;;12.70;90.50;;;;;;5275301;27;20513;-63
2024/04/16 16:27:23;;;;;;;0.30;0.30;;;12.70;90.80;;;;;;5276719;27;20374;-62
2024/04/16 16:29:49;;;;;;;0.30;0.30;;;12.60;91.50;;;;;;5276640;27;20269;-63
2024/04/16 16:32:15;;;;;;;0.30;0.30;;;12.60;91.30;;;;;;5277320;27;20269;-62
2024/04/16 16:34:40;;;;;;;0.30;0.30;;;12.60;91.20;;;;;;5276616;27;20226;-64
2024/04/16 16:37:06;;;;;;;0.30;0.30;;;12.70;91.00;;;;;;5276782;27;20262;-63
2024/04/16 16:39:34;;;;;;;0.30;0.30;;;12.60;91.20;;;;;;5280850;27;20222;-62
2024/04/16 16:42:00;;;;;;;0.30;0.30;;;12.70;91.10;;;;;;5280010;27;20230;-62
2024/04/16 16:44:26;;;;;;;0.30;0.30;;;12.60;91.30;;;;;;5279699;27;20518;-61
2024/04/16 16:46:51;;;;;;;0.30;0.30;;;12.50;91.70;;;;;;5279205;27;20502;-61
2024/04/16 16:49:17;;;;;;;0.30;0.30;;;12.40;91.80;;;;;;5280148;27;20690;-61
2024/04/16 16:51:43;;;;;;;0.30;0.30;;;12.30;91.80;;;;;;5280053;27;20270;-61